sensor_id;sensor_type;location;lat;lon;timestamp;temperature;humidity
42339;DHT22;27993;45.392;10.918;2023-12-28T00:01:23;8.60;99.90
42339;DHT22;27993;45.392;10.918;2023-12-28T00:03:53;8.60;99.90
42339;DHT22;27993;45.392;10.918;2023-12-28T00:06:24;8.70;99.90
42339;DHT22;27993;45.392;10.918;2023-12-28T00:08:54;8.60;99.90
42339;DHT22;27993;45.392;10.918;2023-12-28T00:11:25;8.60;99.90
42339;DHT22;27993;45.392;10.918;2023-12-28T00:13:56;8.60;99.90
42339;DHT22;27993;45.392;10.918;2023-12-28T00:16:27;8.60;99.90
42339;DHT22;27993;45.392;10.918;2023-12-28T00:18:58;8.70;99.90
42339;DHT22;27993;45.392;10.918;2023-12-28T00:21:28;8.60;99.90
42339;DHT22;27993;45.392;10.918;2023-12-28T00:23:59;8.60;99.90
42339;DHT22;27993;45.392;10.918;2023-12-28T00:26:30;8.60;99.90
42339;DHT22;27993;45.392;10.918;2023-12-28T00:29:00;8.50;99.90
42339;DHT22;27993;45.392;10.918;2023-12-28T00:31:31;8.40;99.90
42339;DHT22;27993;45.392;10.918;2023-12-28T00:34:01;8.50;99.90
42339;DHT22;27993;45.392;10.918;2023-12-28T00:36:32;8.60;99.90
42339;DHT22;27993;45.392;10.918;2023-12-28T00:39:02;8.60;99.90
42339;DHT22;27993;45.392;10.918;2023-12-28T00:41:33;8.50;99.90
42339;DHT22;27993;45.392;10.918;2023-12-28T00:44:04;8.60;99.90
42339;DHT22;27993;45.392;10.918;2023-12-28T00:46:37;8.50;99.90
42339;DHT22;27993;45.392;10.918;2023-12-28T00:49:07;8.40;99.90
42339;DHT22;27993;45.392;10.918;2023-12-28T00:51:38;8.60;99.90
42339;DHT22;27993;45.392;10.918;2023-12-28T00:54:09;8.40;99.90
42339;DHT22;27993;45.392;10.918;2023-12-28T00:56:40;8.50;99.90
42339;DHT22;27993;45.392;10.918;2023-12-28T00:59:10;8.50;99.90
42339;DHT22;27993;45.392;10.918;2023-12-28T01:01:41;8.60;99.90
42339;DHT22;27993;45.392;10.918;2023-12-28T01:04:11;8.50;99.90
42339;DHT22;27993;45.392;10.918;2023-12-28T01:06:42;8.50;99.90
42339;DHT22;27993;45.392;10.918;2023-12-28T01:09:13;8.40;99.90
42339;DHT22;27993;45.392;10.918;2023-12-28T01:11:43;8.50;99.90
42339;DHT22;27993;45.392;10.918;2023-12-28T01:14:14;8.40;99.90
42339;DHT22;27993;45.392;10.918;2023-12-28T01:16:44;8.40;99.90
42339;DHT22;27993;45.392;10.918;2023-12-28T01:19:15;8.30;99.90
42339;DHT22;27993;45.392;10.918;2023-12-28T01:21:45;8.40;99.90
42339;DHT22;27993;45.392;10.918;2023-12-28T01:24:16;8.50;99.90
42339;DHT22;27993;45.392;10.918;2023-12-28T01:26:47;8.50;99.90
42339;DHT22;27993;45.392;10.918;2023-12-28T01:29:17;8.50;99.90
42339;DHT22;27993;45.392;10.918;2023-12-28T01:31:48;8.50;99.90
42339;DHT22;27993;45.392;10.918;2023-12-28T01:34:19;8.40;99.90
42339;DHT22;27993;45.392;10.918;2023-12-28T01:36:49;8.40;99.90
42339;DHT22;27993;45.392;10.918;2023-12-28T01:39:20;8.40;99.90
42339;DHT22;27993;45.392;10.918;2023-12-28T01:41:50;8.40;99.90
42339;DHT22;27993;45.392;10.918;2023-12-28T01:44:21;8.40;99.90
42339;DHT22;27993;45.392;10.918;2023-12-28T01:46:52;8.40;99.90
42339;DHT22;27993;45.392;10.918;2023-12-28T01:49:23;8.40;99.90
42339;DHT22;27993;45.392;10.918;2023-12-28T01:51:54;8.40;99.90
42339;DHT22;27993;45.392;10.918;2023-12-28T01:54:25;8.40;99.90
42339;DHT22;27993;45.392;10.918;2023-12-28T01:56:57;8.30;99.90
42339;DHT22;27993;45.392;10.918;2023-12-28T01:59:30;8.40;99.90
42339;DHT22;27993;45.392;10.918;2023-12-28T02:02:00;8.50;99.90
42339;DHT22;27993;45.392;10.918;2023-12-28T02:04:31;8.50;99.90
42339;DHT22;27993;45.392;10.918;2023-12-28T02:07:02;8.40;99.90
42339;DHT22;27993;45.392;10.918;2023-12-28T02:09:33;8.40;99.90
42339;DHT22;27993;45.392;10.918;2023-12-28T02:12:04;8.30;99.90
42339;DHT22;27993;45.392;10.918;2023-12-28T02:14:35;8.40;99.90
42339;DHT22;27993;45.392;10.918;2023-12-28T02:17:43;8.30;99.90
42339;DHT22;27993;45.392;10.918;2023-12-28T02:20:19;8.30;99.90
42339;DHT22;27993;45.392;10.918;2023-12-28T02:22:52;8.40;99.90
42339;DHT22;27993;45.392;10.918;2023-12-28T02:25:23;8.30;99.90
42339;DHT22;27993;45.392;10.918;2023-12-28T02:27:54;8.30;99.90
42339;DHT22;27993;45.392;10.918;2023-12-28T02:30:25;8.40;99.90
42339;DHT22;27993;45.392;10.918;2023-12-28T02:36:02;8.30;99.90
42339;DHT22;27993;45.392;10.918;2023-12-28T02:38:37;8.30;99.90
42339;DHT22;27993;45.392;10.918;2023-12-28T02:41:09;8.40;99.90
42339;DHT22;27993;45.392;10.918;2023-12-28T02:43:40;8.40;99.90
42339;DHT22;27993;45.392;10.918;2023-12-28T02:46:10;8.40;99.90
42339;DHT22;27993;45.392;10.918;2023-12-28T02:48:42;8.40;99.90
42339;DHT22;27993;45.392;10.918;2023-12-28T02:51:12;8.40;99.90
42339;DHT22;27993;45.392;10.918;2023-12-28T02:53:43;8.40;99.90
42339;DHT22;27993;45.392;10.918;2023-12-28T02:56:14;8.40;99.90
42339;DHT22;27993;45.392;10.918;2023-12-28T02:58:44;8.40;99.90
42339;DHT22;27993;45.392;10.918;2023-12-28T03:01:15;8.40;99.90
42339;DHT22;27993;45.392;10.918;2023-12-28T03:03:45;8.50;99.90
42339;DHT22;27993;45.392;10.918;2023-12-28T03:06:16;8.50;99.90
42339;DHT22;27993;45.392;10.918;2023-12-28T03:08:47;8.50;99.90
42339;DHT22;27993;45.392;10.918;2023-12-28T03:11:17;8.50;99.90
42339;DHT22;27993;45.392;10.918;2023-12-28T03:13:48;8.50;99.90
42339;DHT22;27993;45.392;10.918;2023-12-28T03:16:19;8.50;99.90
42339;DHT22;27993;45.392;10.918;2023-12-28T03:18:49;8.50;99.90
42339;DHT22;27993;45.392;10.918;2023-12-28T03:21:20;8.50;99.90
42339;DHT22;27993;45.392;10.918;2023-12-28T03:23:50;8.50;99.90
42339;DHT22;27993;45.392;10.918;2023-12-28T03:26:21;8.60;99.90
42339;DHT22;27993;45.392;10.918;2023-12-28T03:28:52;8.50;99.90
42339;DHT22;27993;45.392;10.918;2023-12-28T03:31:22;8.50;99.90
42339;DHT22;27993;45.392;10.918;2023-12-28T03:33:53;8.50;99.90
42339;DHT22;27993;45.392;10.918;2023-12-28T03:36:24;8.50;99.90
42339;DHT22;27993;45.392;10.918;2023-12-28T03:38:54;8.50;99.90
42339;DHT22;27993;45.392;10.918;2023-12-28T03:41:25;8.40;99.90
42339;DHT22;27993;45.392;10.918;2023-12-28T03:43:55;8.50;99.90
42339;DHT22;27993;45.392;10.918;2023-12-28T03:46:26;8.40;99.90
42339;DHT22;27993;45.392;10.918;2023-12-28T03:48:57;8.20;99.90
42339;DHT22;27993;45.392;10.918;2023-12-28T03:51:27;8.00;99.90
42339;DHT22;27993;45.392;10.918;2023-12-28T03:53:58;8.10;99.90
42339;DHT22;27993;45.392;10.918;2023-12-28T03:56:29;8.20;99.90
42339;DHT22;27993;45.392;10.918;2023-12-28T03:59:00;8.20;99.90
42339;DHT22;27993;45.392;10.918;2023-12-28T04:01:31;8.10;99.90
42339;DHT22;27993;45.392;10.918;2023-12-28T04:04:01;8.00;99.90
42339;DHT22;27993;45.392;10.918;2023-12-28T04:06:32;8.00;99.90
42339;DHT22;27993;45.392;10.918;2023-12-28T04:09:02;8.10;99.90
42339;DHT22;27993;45.392;10.918;2023-12-28T04:11:33;8.10;99.90
42339;DHT22;27993;45.392;10.918;2023-12-28T04:14:04;7.90;99.90
42339;DHT22;27993;45.392;10.918;2023-12-28T04:16:34;8.00;99.90
42339;DHT22;27993;45.392;10.918;2023-12-28T04:19:05;7.90;99.90
42339;DHT22;27993;45.392;10.918;2023-12-28T04:21:35;7.90;99.90
42339;DHT22;27993;45.392;10.918;2023-12-28T04:24:06;8.00;99.90
42339;DHT22;27993;45.392;10.918;2023-12-28T04:26:37;8.00;99.90
42339;DHT22;27993;45.392;10.918;2023-12-28T04:29:07;8.10;99.90
42339;DHT22;27993;45.392;10.918;2023-12-28T04:31:41;8.20;99.90
42339;DHT22;27993;45.392;10.918;2023-12-28T04:34:16;8.20;99.90
42339;DHT22;27993;45.392;10.918;2023-12-28T04:36:46;8.30;99.90
42339;DHT22;27993;45.392;10.918;2023-12-28T04:39:19;8.20;99.90
42339;DHT22;27993;45.392;10.918;2023-12-28T04:41:49;8.10;99.90
42339;DHT22;27993;45.392;10.918;2023-12-28T04:44:20;8.20;99.90
42339;DHT22;27993;45.392;10.918;2023-12-28T04:46:50;8.30;99.90
42339;DHT22;27993;45.392;10.918;2023-12-28T04:49:21;8.20;99.90
42339;DHT22;27993;45.392;10.918;2023-12-28T04:51:52;8.20;99.90
42339;DHT22;27993;45.392;10.918;2023-12-28T04:54:22;8.30;99.90
42339;DHT22;27993;45.392;10.918;2023-12-28T04:56:53;8.30;99.90
42339;DHT22;27993;45.392;10.918;2023-12-28T04:59:24;8.30;99.90
42339;DHT22;27993;45.392;10.918;2023-12-28T05:01:54;8.30;99.90
42339;DHT22;27993;45.392;10.918;2023-12-28T05:04:25;8.20;99.90
42339;DHT22;27993;45.392;10.918;2023-12-28T05:06:56;8.20;99.90
42339;DHT22;27993;45.392;10.918;2023-12-28T05:09:26;8.10;99.90
42339;DHT22;27993;45.392;10.918;2023-12-28T05:11:57;8.00;99.90
42339;DHT22;27993;45.392;10.918;2023-12-28T05:14:27;8.10;99.90
42339;DHT22;27993;45.392;10.918;2023-12-28T05:16:58;8.20;99.90
42339;DHT22;27993;45.392;10.918;2023-12-28T05:19:28;8.10;99.90
42339;DHT22;27993;45.392;10.918;2023-12-28T05:21:59;8.20;99.90
42339;DHT22;27993;45.392;10.918;2023-12-28T05:24:34;8.20;99.90
42339;DHT22;27993;45.392;10.918;2023-12-28T05:27:04;8.30;99.90
42339;DHT22;27993;45.392;10.918;2023-12-28T05:29:35;8.30;99.90
42339;DHT22;27993;45.392;10.918;2023-12-28T05:32:06;8.40;99.90
42339;DHT22;27993;45.392;10.918;2023-12-28T05:34:36;8.50;99.90
42339;DHT22;27993;45.392;10.918;2023-12-28T05:37:07;8.40;99.90
42339;DHT22;27993;45.392;10.918;2023-12-28T05:39:37;8.50;99.90
42339;DHT22;27993;45.392;10.918;2023-12-28T05:42:08;8.50;99.90
42339;DHT22;27993;45.392;10.918;2023-12-28T05:44:38;8.40;99.90
42339;DHT22;27993;45.392;10.918;2023-12-28T05:47:09;8.40;99.90
42339;DHT22;27993;45.392;10.918;2023-12-28T05:49:40;8.40;99.90
42339;DHT22;27993;45.392;10.918;2023-12-28T05:52:10;8.40;99.90
42339;DHT22;27993;45.392;10.918;2023-12-28T05:54:41;8.40;99.90
42339;DHT22;27993;45.392;10.918;2023-12-28T05:57:13;8.40;99.90
42339;DHT22;27993;45.392;10.918;2023-12-28T05:59:44;8.50;99.90
42339;DHT22;27993;45.392;10.918;2023-12-28T06:02:14;8.50;99.90
42339;DHT22;27993;45.392;10.918;2023-12-28T06:04:45;8.40;99.90
42339;DHT22;27993;45.392;10.918;2023-12-28T06:07:16;8.40;99.90
42339;DHT22;27993;45.392;10.918;2023-12-28T06:09:47;8.40;99.90
42339;DHT22;27993;45.392;10.918;2023-12-28T06:12:17;8.40;99.90
42339;DHT22;27993;45.392;10.918;2023-12-28T06:14:48;8.40;99.90
42339;DHT22;27993;45.392;10.918;2023-12-28T06:17:18;8.40;99.90
42339;DHT22;27993;45.392;10.918;2023-12-28T06:19:49;8.40;99.90
42339;DHT22;27993;45.392;10.918;2023-12-28T06:22:20;8.40;99.90
42339;DHT22;27993;45.392;10.918;2023-12-28T06:24:50;8.50;99.90
42339;DHT22;27993;45.392;10.918;2023-12-28T06:27:21;8.50;99.90
42339;DHT22;27993;45.392;10.918;2023-12-28T06:29:53;8.50;99.90
42339;DHT22;27993;45.392;10.918;2023-12-28T06:32:24;8.50;99.90
42339;DHT22;27993;45.392;10.918;2023-12-28T06:34:55;8.50;99.90
42339;DHT22;27993;45.392;10.918;2023-12-28T06:37:26;8.50;99.90
42339;DHT22;27993;45.392;10.918;2023-12-28T06:39:57;8.60;99.90
42339;DHT22;27993;45.392;10.918;2023-12-28T06:42:27;8.50;99.90
42339;DHT22;27993;45.392;10.918;2023-12-28T06:44:58;8.50;99.90
42339;DHT22;27993;45.392;10.918;2023-12-28T06:47:28;8.50;99.90
42339;DHT22;27993;45.392;10.918;2023-12-28T06:49:59;8.30;99.90
42339;DHT22;27993;45.392;10.918;2023-12-28T06:52:30;8.40;99.90
42339;DHT22;27993;45.392;10.918;2023-12-28T06:55:02;8.30;99.90
42339;DHT22;27993;45.392;10.918;2023-12-28T06:57:32;8.30;99.90
42339;DHT22;27993;45.392;10.918;2023-12-28T07:00:03;8.20;99.90
42339;DHT22;27993;45.392;10.918;2023-12-28T07:02:34;7.90;99.90
42339;DHT22;27993;45.392;10.918;2023-12-28T07:05:05;8.00;99.90
42339;DHT22;27993;45.392;10.918;2023-12-28T07:07:36;8.10;99.90
42339;DHT22;27993;45.392;10.918;2023-12-28T07:10:07;8.10;99.90
42339;DHT22;27993;45.392;10.918;2023-12-28T07:12:38;8.20;99.90
42339;DHT22;27993;45.392;10.918;2023-12-28T07:15:09;8.20;99.90
42339;DHT22;27993;45.392;10.918;2023-12-28T07:17:43;8.10;99.90
42339;DHT22;27993;45.392;10.918;2023-12-28T07:20:14;8.10;99.90
42339;DHT22;27993;45.392;10.918;2023-12-28T07:22:45;8.20;99.90
42339;DHT22;27993;45.392;10.918;2023-12-28T07:25:15;8.30;99.90
42339;DHT22;27993;45.392;10.918;2023-12-28T07:27:46;8.30;99.90
42339;DHT22;27993;45.392;10.918;2023-12-28T07:30:17;8.30;99.90
42339;DHT22;27993;45.392;10.918;2023-12-28T07:32:48;8.20;99.90
42339;DHT22;27993;45.392;10.918;2023-12-28T07:35:18;8.20;99.90
42339;DHT22;27993;45.392;10.918;2023-12-28T07:37:49;8.30;99.90
42339;DHT22;27993;45.392;10.918;2023-12-28T07:40:20;8.40;99.90
42339;DHT22;27993;45.392;10.918;2023-12-28T07:42:50;8.30;99.90
42339;DHT22;27993;45.392;10.918;2023-12-28T07:45:21;8.30;99.90
42339;DHT22;27993;45.392;10.918;2023-12-28T07:47:53;8.20;99.90
42339;DHT22;27993;45.392;10.918;2023-12-28T07:50:24;8.00;99.90
42339;DHT22;27993;45.392;10.918;2023-12-28T07:52:54;7.90;99.90
42339;DHT22;27993;45.392;10.918;2023-12-28T07:55:25;7.90;99.90
42339;DHT22;27993;45.392;10.918;2023-12-28T07:57:57;7.80;99.90
42339;DHT22;27993;45.392;10.918;2023-12-28T08:00:27;7.90;99.90
42339;DHT22;27993;45.392;10.918;2023-12-28T08:02:58;8.10;99.90
42339;DHT22;27993;45.392;10.918;2023-12-28T08:05:28;8.10;99.90
42339;DHT22;27993;45.392;10.918;2023-12-28T08:07:59;8.20;99.90
42339;DHT22;27993;45.392;10.918;2023-12-28T08:10:30;8.30;99.90
42339;DHT22;27993;45.392;10.918;2023-12-28T08:13:00;8.40;99.90
42339;DHT22;27993;45.392;10.918;2023-12-28T08:15:31;8.40;99.90
42339;DHT22;27993;45.392;10.918;2023-12-28T08:18:02;8.40;99.90
42339;DHT22;27993;45.392;10.918;2023-12-28T08:20:32;8.40;99.90
42339;DHT22;27993;45.392;10.918;2023-12-28T08:23:03;8.50;99.90
42339;DHT22;27993;45.392;10.918;2023-12-28T08:25:34;8.60;99.90
42339;DHT22;27993;45.392;10.918;2023-12-28T08:28:05;8.50;99.90
42339;DHT22;27993;45.392;10.918;2023-12-28T08:30:35;8.60;99.90
42339;DHT22;27993;45.392;10.918;2023-12-28T08:33:06;8.60;99.90
42339;DHT22;27993;45.392;10.918;2023-12-28T08:35:37;8.60;99.90
42339;DHT22;27993;45.392;10.918;2023-12-28T08:38:07;8.60;99.90
42339;DHT22;27993;45.392;10.918;2023-12-28T08:40:38;8.60;99.90
42339;DHT22;27993;45.392;10.918;2023-12-28T08:43:08;8.60;99.90
42339;DHT22;27993;45.392;10.918;2023-12-28T08:45:39;8.70;99.90
42339;DHT22;27993;45.392;10.918;2023-12-28T08:48:10;8.80;99.90
42339;DHT22;27993;45.392;10.918;2023-12-28T08:50:40;8.80;99.90
42339;DHT22;27993;45.392;10.918;2023-12-28T08:53:11;8.90;99.90
42339;DHT22;27993;45.392;10.918;2023-12-28T08:55:42;9.00;99.90
42339;DHT22;27993;45.392;10.918;2023-12-28T08:58:12;9.00;99.90
42339;DHT22;27993;45.392;10.918;2023-12-28T09:00:43;9.10;99.90
42339;DHT22;27993;45.392;10.918;2023-12-28T09:03:15;9.10;99.90
42339;DHT22;27993;45.392;10.918;2023-12-28T09:05:46;9.20;99.90
42339;DHT22;27993;45.392;10.918;2023-12-28T09:08:16;9.20;99.90
42339;DHT22;27993;45.392;10.918;2023-12-28T09:10:47;9.30;99.90
42339;DHT22;27993;45.392;10.918;2023-12-28T09:13:18;9.30;99.90
42339;DHT22;27993;45.392;10.918;2023-12-28T09:15:50;9.30;99.90
42339;DHT22;27993;45.392;10.918;2023-12-28T09:18:21;9.30;99.90
42339;DHT22;27993;45.392;10.918;2023-12-28T09:20:51;9.30;99.90
42339;DHT22;27993;45.392;10.918;2023-12-28T09:23:22;9.30;99.90
42339;DHT22;27993;45.392;10.918;2023-12-28T09:25:52;9.40;99.90
42339;DHT22;27993;45.392;10.918;2023-12-28T09:28:23;9.40;99.90
42339;DHT22;27993;45.392;10.918;2023-12-28T09:30:54;9.40;99.90
42339;DHT22;27993;45.392;10.918;2023-12-28T09:33:24;9.50;99.90
42339;DHT22;27993;45.392;10.918;2023-12-28T09:35:55;9.50;99.90
42339;DHT22;27993;45.392;10.918;2023-12-28T09:38:26;9.60;99.90
42339;DHT22;27993;45.392;10.918;2023-12-28T09:41:01;9.70;99.90
42339;DHT22;27993;45.392;10.918;2023-12-28T09:43:46;9.80;99.90
42339;DHT22;27993;45.392;10.918;2023-12-28T09:46:21;9.90;99.90
42339;DHT22;27993;45.392;10.918;2023-12-28T09:48:52;10.00;99.90
42339;DHT22;27993;45.392;10.918;2023-12-28T09:51:25;10.00;99.90
42339;DHT22;27993;45.392;10.918;2023-12-28T09:53:56;10.10;99.90
42339;DHT22;27993;45.392;10.918;2023-12-28T09:56:27;10.20;99.90
42339;DHT22;27993;45.392;10.918;2023-12-28T09:58:59;10.20;99.90
42339;DHT22;27993;45.392;10.918;2023-12-28T10:01:29;10.20;99.90
42339;DHT22;27993;45.392;10.918;2023-12-28T10:04:00;10.40;99.90
42339;DHT22;27993;45.392;10.918;2023-12-28T10:06:33;10.50;99.90
42339;DHT22;27993;45.392;10.918;2023-12-28T10:09:06;10.50;99.90
42339;DHT22;27993;45.392;10.918;2023-12-28T10:11:38;10.50;99.90
42339;DHT22;27993;45.392;10.918;2023-12-28T10:14:09;10.60;99.90
42339;DHT22;27993;45.392;10.918;2023-12-28T10:16:41;10.80;99.90
42339;DHT22;27993;45.392;10.918;2023-12-28T10:19:12;11.00;99.90
42339;DHT22;27993;45.392;10.918;2023-12-28T10:21:43;11.20;99.90
42339;DHT22;27993;45.392;10.918;2023-12-28T10:24:14;11.30;99.90
42339;DHT22;27993;45.392;10.918;2023-12-28T10:26:44;11.40;99.90
42339;DHT22;27993;45.392;10.918;2023-12-28T10:29:15;11.40;99.90
42339;DHT22;27993;45.392;10.918;2023-12-28T10:31:46;11.50;99.90
42339;DHT22;27993;45.392;10.918;2023-12-28T10:34:21;11.60;99.90
42339;DHT22;27993;45.392;10.918;2023-12-28T10:36:51;11.60;99.90
42339;DHT22;27993;45.392;10.918;2023-12-28T10:39:24;11.80;99.90
42339;DHT22;27993;45.392;10.918;2023-12-28T10:41:57;11.80;99.90
42339;DHT22;27993;45.392;10.918;2023-12-28T10:44:32;11.70;99.90
42339;DHT22;27993;45.392;10.918;2023-12-28T10:47:07;11.70;99.90
42339;DHT22;27993;45.392;10.918;2023-12-28T10:49:44;11.80;99.90
42339;DHT22;27993;45.392;10.918;2023-12-28T10:52:18;12.00;99.90
42339;DHT22;27993;45.392;10.918;2023-12-28T11:01:30;12.40;99.90
42339;DHT22;27993;45.392;10.918;2023-12-28T11:04:47;12.50;99.90
42339;DHT22;27993;45.392;10.918;2023-12-28T11:06:59;12.70;99.90
42339;DHT22;27993;45.392;10.918;2023-12-28T11:09:34;12.80;99.90
42339;DHT22;27993;45.392;10.918;2023-12-28T11:12:07;13.10;99.90
42339;DHT22;27993;45.392;10.918;2023-12-28T11:14:40;13.00;99.90
42339;DHT22;27993;45.392;10.918;2023-12-28T11:17:10;13.10;99.90
42339;DHT22;27993;45.392;10.918;2023-12-28T11:19:42;12.80;99.90
42339;DHT22;27993;45.392;10.918;2023-12-28T11:22:13;12.90;99.90
42339;DHT22;27993;45.392;10.918;2023-12-28T11:24:44;13.00;99.90
42339;DHT22;27993;45.392;10.918;2023-12-28T11:27:15;13.00;99.90
42339;DHT22;27993;45.392;10.918;2023-12-28T11:29:51;12.90;99.90
42339;DHT22;27993;45.392;10.918;2023-12-28T11:32:22;13.00;99.90
42339;DHT22;27993;45.392;10.918;2023-12-28T11:34:59;13.20;99.90
42339;DHT22;27993;45.392;10.918;2023-12-28T11:37:30;13.00;99.90
42339;DHT22;27993;45.392;10.918;2023-12-28T11:40:12;13.00;99.90
42339;DHT22;27993;45.392;10.918;2023-12-28T11:42:52;13.00;99.90
42339;DHT22;27993;45.392;10.918;2023-12-28T11:45:24;13.10;99.90
42339;DHT22;27993;45.392;10.918;2023-12-28T11:48:01;13.40;99.90
42339;DHT22;27993;45.392;10.918;2023-12-28T11:50:32;13.50;99.90
42339;DHT22;27993;45.392;10.918;2023-12-28T11:53:03;13.60;99.90
42339;DHT22;27993;45.392;10.918;2023-12-28T11:55:34;13.70;99.90
42339;DHT22;27993;45.392;10.918;2023-12-28T11:58:05;13.80;99.90
42339;DHT22;27993;45.392;10.918;2023-12-28T12:00:35;13.90;99.90
42339;DHT22;27993;45.392;10.918;2023-12-28T12:03:06;13.90;99.90
42339;DHT22;27993;45.392;10.918;2023-12-28T12:05:40;13.80;99.90
42339;DHT22;27993;45.392;10.918;2023-12-28T12:08:10;13.80;99.90
42339;DHT22;27993;45.392;10.918;2023-12-28T12:10:44;13.70;99.90
42339;DHT22;27993;45.392;10.918;2023-12-28T12:13:15;13.60;99.90
42339;DHT22;27993;45.392;10.918;2023-12-28T12:15:49;13.60;99.90
42339;DHT22;27993;45.392;10.918;2023-12-28T12:18:20;13.60;99.90
42339;DHT22;27993;45.392;10.918;2023-12-28T12:20:51;13.60;99.90
42339;DHT22;27993;45.392;10.918;2023-12-28T12:23:22;13.60;99.90
42339;DHT22;27993;45.392;10.918;2023-12-28T12:25:52;13.40;99.90
42339;DHT22;27993;45.392;10.918;2023-12-28T12:28:23;13.40;99.90
42339;DHT22;27993;45.392;10.918;2023-12-28T12:30:54;13.30;99.90
42339;DHT22;27993;45.392;10.918;2023-12-28T12:33:28;13.20;99.90
42339;DHT22;27993;45.392;10.918;2023-12-28T12:36:00;13.10;99.90
42339;DHT22;27993;45.392;10.918;2023-12-28T12:38:30;13.10;99.90
42339;DHT22;27993;45.392;10.918;2023-12-28T12:41:02;13.00;99.90
42339;DHT22;27993;45.392;10.918;2023-12-28T12:43:34;13.00;99.90
42339;DHT22;27993;45.392;10.918;2023-12-28T12:46:04;12.90;99.90
42339;DHT22;27993;45.392;10.918;2023-12-28T12:48:35;13.00;99.90
42339;DHT22;27993;45.392;10.918;2023-12-28T12:51:06;12.90;99.90
42339;DHT22;27993;45.392;10.918;2023-12-28T12:53:37;12.80;99.90
42339;DHT22;27993;45.392;10.918;2023-12-28T12:56:07;12.80;99.90
42339;DHT22;27993;45.392;10.918;2023-12-28T12:58:38;12.70;99.90
42339;DHT22;27993;45.392;10.918;2023-12-28T13:01:12;12.60;99.90
42339;DHT22;27993;45.392;10.918;2023-12-28T13:03:42;12.60;99.90
42339;DHT22;27993;45.392;10.918;2023-12-28T13:06:13;12.70;99.90
42339;DHT22;27993;45.392;10.918;2023-12-28T13:08:43;12.70;99.90
42339;DHT22;27993;45.392;10.918;2023-12-28T13:11:14;12.70;99.90
42339;DHT22;27993;45.392;10.918;2023-12-28T13:13:45;12.70;99.90
42339;DHT22;27993;45.392;10.918;2023-12-28T13:16:16;12.60;99.90
42339;DHT22;27993;45.392;10.918;2023-12-28T13:18:47;12.50;99.90
42339;DHT22;27993;45.392;10.918;2023-12-28T13:21:18;12.50;99.90
42339;DHT22;27993;45.392;10.918;2023-12-28T13:23:48;12.40;99.90
42339;DHT22;27993;45.392;10.918;2023-12-28T13:26:19;12.30;99.90
42339;DHT22;27993;45.392;10.918;2023-12-28T13:28:49;12.30;99.90
42339;DHT22;27993;45.392;10.918;2023-12-28T13:31:21;12.30;99.90
42339;DHT22;27993;45.392;10.918;2023-12-28T13:33:51;12.40;99.90
42339;DHT22;27993;45.392;10.918;2023-12-28T13:36:22;12.40;99.90
42339;DHT22;27993;45.392;10.918;2023-12-28T13:38:52;12.30;99.90
42339;DHT22;27993;45.392;10.918;2023-12-28T13:41:23;12.20;99.90
42339;DHT22;27993;45.392;10.918;2023-12-28T13:43:54;12.20;99.90
42339;DHT22;27993;45.392;10.918;2023-12-28T13:46:31;12.10;99.90
42339;DHT22;27993;45.392;10.918;2023-12-28T13:49:01;12.10;99.90
42339;DHT22;27993;45.392;10.918;2023-12-28T13:51:35;12.00;99.90
42339;DHT22;27993;45.392;10.918;2023-12-28T13:54:05;11.90;99.90
42339;DHT22;27993;45.392;10.918;2023-12-28T13:56:36;11.90;99.90
42339;DHT22;27993;45.392;10.918;2023-12-28T13:59:08;11.90;99.90
42339;DHT22;27993;45.392;10.918;2023-12-28T14:01:39;11.90;99.90
42339;DHT22;27993;45.392;10.918;2023-12-28T14:04:10;11.80;99.90
42339;DHT22;27993;45.392;10.918;2023-12-28T14:06:41;11.80;99.90
42339;DHT22;27993;45.392;10.918;2023-12-28T14:09:11;11.80;99.90
42339;DHT22;27993;45.392;10.918;2023-12-28T14:11:42;11.80;99.90
42339;DHT22;27993;45.392;10.918;2023-12-28T14:14:32;11.80;99.90
42339;DHT22;27993;45.392;10.918;2023-12-28T14:17:02;11.60;99.90
42339;DHT22;27993;45.392;10.918;2023-12-28T14:19:34;11.50;99.90
42339;DHT22;27993;45.392;10.918;2023-12-28T14:22:05;11.50;99.90
42339;DHT22;27993;45.392;10.918;2023-12-28T14:24:36;11.50;99.90
42339;DHT22;27993;45.392;10.918;2023-12-28T14:27:07;11.40;99.90
42339;DHT22;27993;45.392;10.918;2023-12-28T14:29:38;11.30;99.90
42339;DHT22;27993;45.392;10.918;2023-12-28T14:32:10;11.30;99.90
42339;DHT22;27993;45.392;10.918;2023-12-28T14:34:41;11.40;99.90
42339;DHT22;27993;45.392;10.918;2023-12-28T14:37:11;11.30;99.90
42339;DHT22;27993;45.392;10.918;2023-12-28T14:39:43;11.20;99.90
42339;DHT22;27993;45.392;10.918;2023-12-28T14:42:13;11.20;99.90
42339;DHT22;27993;45.392;10.918;2023-12-28T14:44:44;11.10;99.90
42339;DHT22;27993;45.392;10.918;2023-12-28T14:47:15;11.00;99.90
42339;DHT22;27993;45.392;10.918;2023-12-28T14:49:45;11.00;99.90
42339;DHT22;27993;45.392;10.918;2023-12-28T14:52:16;11.00;99.90
42339;DHT22;27993;45.392;10.918;2023-12-28T14:54:46;11.00;99.90
42339;DHT22;27993;45.392;10.918;2023-12-28T14:57:17;10.90;99.90
42339;DHT22;27993;45.392;10.918;2023-12-28T14:59:48;10.90;99.90
42339;DHT22;27993;45.392;10.918;2023-12-28T15:02:18;10.90;99.90
42339;DHT22;27993;45.392;10.918;2023-12-28T15:04:49;10.90;99.90
42339;DHT22;27993;45.392;10.918;2023-12-28T15:07:20;10.80;99.90
42339;DHT22;27993;45.392;10.918;2023-12-28T15:09:50;10.90;99.90
42339;DHT22;27993;45.392;10.918;2023-12-28T15:12:23;10.90;99.90
42339;DHT22;27993;45.392;10.918;2023-12-28T15:14:54;10.90;99.90
42339;DHT22;27993;45.392;10.918;2023-12-28T15:17:25;10.90;99.90
42339;DHT22;27993;45.392;10.918;2023-12-28T15:19:56;10.80;99.90
42339;DHT22;27993;45.392;10.918;2023-12-28T15:22:27;10.70;99.90
42339;DHT22;27993;45.392;10.918;2023-12-28T15:24:57;10.60;99.90
42339;DHT22;27993;45.392;10.918;2023-12-28T15:27:28;10.60;99.90
42339;DHT22;27993;45.392;10.918;2023-12-28T15:29:59;10.70;99.90
42339;DHT22;27993;45.392;10.918;2023-12-28T15:32:30;10.70;99.90
42339;DHT22;27993;45.392;10.918;2023-12-28T15:35:00;10.70;99.90
42339;DHT22;27993;45.392;10.918;2023-12-28T15:37:33;10.70;99.90
42339;DHT22;27993;45.392;10.918;2023-12-28T15:40:03;10.70;99.90
42339;DHT22;27993;45.392;10.918;2023-12-28T15:42:34;10.60;99.90
42339;DHT22;27993;45.392;10.918;2023-12-28T15:45:06;10.60;99.90
42339;DHT22;27993;45.392;10.918;2023-12-28T15:47:36;10.50;99.90
42339;DHT22;27993;45.392;10.918;2023-12-28T15:50:07;10.50;99.90
42339;DHT22;27993;45.392;10.918;2023-12-28T15:52:38;10.50;99.90
42339;DHT22;27993;45.392;10.918;2023-12-28T15:55:08;10.40;99.90
42339;DHT22;27993;45.392;10.918;2023-12-28T15:57:39;10.50;99.90
42339;DHT22;27993;45.392;10.918;2023-12-28T16:00:10;10.50;99.90